Time;durP1;ratioP1;P1;durP2;ratioP2;P2;SDS_P1;SDS_P2;PMS_P1;PMS_P2;Temp;Humidity;BMP_temperature;BMP_pressure;BME280_temperature;BME280_humidity;BME280_pressure;Samples;Min_cycle;Max_cycle;Signal;HPM_P1;HPM_P2
2023/04/01 00:03:55;;;;;;;;;;;10.10;99.90;;;;;;8377351;28;19931;-68
2023/04/01 00:07:57;;;;;;;;;;;10.10;99.90;;;;;;8373622;28;19928;-67
2023/04/01 00:11:59;;;;;;;;;;;10.10;99.90;;;;;;8363546;28;19925;-67
2023/04/01 00:16:01;;;;;;;;;;;10.10;99.90;;;;;;8362248;28;19936;-67
2023/04/01 00:20:04;;;;;;;;;;;10.10;99.90;;;;;;8367444;28;20266;-67
2023/04/01 00:24:06;;;;;;;;;;;10.10;99.90;;;;;;8383320;28;19994;-67
2023/04/01 00:28:08;;;;;;;;;;;10.10;99.90;;;;;;8360116;28;19948;-67
2023/04/01 00:32:09;;;;;;;;;;;10.00;99.90;;;;;;8367988;28;19929;-67
2023/04/01 00:36:12;;;;;;;;;;;10.00;99.90;;;;;;8364861;28;19925;-67
2023/04/01 00:40:40;;;;;;;;;;;10.00;99.90;;;;;;8376859;28;19986;-67
2023/04/01 00:44:42;;;;;;;;;;;10.00;99.90;;;;;;8343916;28;20050;-68
2023/04/01 00:48:48;;;;;;;;;;;10.00;99.90;;;;;;8376463;28;19925;-67
2023/04/01 00:52:50;;;;;;;;;;;9.90;99.90;;;;;;8379968;28;19924;-67
2023/04/01 00:57:06;;;;;;;;;;;9.90;99.90;;;;;;8364884;28;19931;-67
2023/04/01 01:01:08;;;;;;;;;;;9.90;99.90;;;;;;8360504;28;19925;-67
2023/04/01 01:05:13;;;;;;;;;;;9.80;99.90;;;;;;8367200;28;19924;-67
2023/04/01 01:09:22;;;;;;;;;;;9.80;99.90;;;;;;8359095;28;19925;-67
2023/04/01 01:13:24;;;;;;;;;;;9.80;99.90;;;;;;8372909;28;19932;-67
2023/04/01 01:17:32;;;;;;;;;;;9.70;99.90;;;;;;8365526;28;19931;-67
2023/04/01 01:21:34;;;;;;;;;;;9.70;99.90;;;;;;8363569;28;19928;-67
2023/04/01 01:26:02;;;;;;;;;;;9.70;99.90;;;;;;8368029;28;19943;-67
2023/04/01 01:30:12;;;;;;;;;;;9.70;99.90;;;;;;8365274;28;20411;-68
2023/04/01 01:34:17;;;;;;;;;;;9.70;99.90;;;;;;8369270;28;20343;-67
2023/04/01 01:38:20;;;;;;;;;;;9.70;99.90;;;;;;8367694;28;19963;-67
2023/04/01 01:42:23;;;;;;;;;;;9.70;99.90;;;;;;8372037;28;19967;-67
2023/04/01 01:46:27;;;;;;;;;;;9.70;99.90;;;;;;8373172;28;19932;-67
2023/04/01 01:50:29;;;;;;;;;;;9.60;99.90;;;;;;8361684;28;19931;-67
2023/04/01 01:54:30;;;;;;;;;;;9.60;99.90;;;;;;8365300;28;19925;-67
2023/04/01 01:58:40;;;;;;;;;;;9.60;99.90;;;;;;8366980;28;19925;-67
2023/04/01 02:02:42;;;;;;;;;;;9.60;99.90;;;;;;8367472;28;19967;-67
2023/04/01 02:06:47;;;;;;;;;;;9.60;99.90;;;;;;8355061;28;19925;-67
2023/04/01 02:10:57;;;;;;;;;;;9.50;99.90;;;;;;8354306;28;19925;-67
2023/04/01 02:14:59;;;;;;;;;;;9.50;99.90;;;;;;8364096;28;19931;-67
2023/04/01 02:19:07;;;;;;;;;;;9.50;99.90;;;;;;8374046;28;19931;-67
2023/04/01 02:38:25;;;;;;;;;;;9.50;99.90;;;;;;8374885;28;19945;-67
2023/04/01 02:42:27;;;;;;;;;;;9.40;99.90;;;;;;8376303;28;20309;-67
2023/04/01 02:46:28;;;;;;;;;;;9.40;99.90;;;;;;8383023;28;19958;-67
2023/04/01 02:50:30;;;;;;;;;;;9.40;99.90;;;;;;8373822;28;19929;-67
2023/04/01 02:54:31;;;;;;;;;;;9.40;99.90;;;;;;8367565;28;20292;-67
2023/04/01 02:58:33;;;;;;;;;;;9.40;99.90;;;;;;8375730;28;19939;-67
2023/04/01 03:02:36;;;;;;;;;;;9.40;99.90;;;;;;8384815;28;19924;-67
2023/04/01 03:06:37;;;;;;;;;;;9.40;99.90;;;;;;8377131;28;19932;-67
2023/04/01 03:10:39;;;;;;;;;;;9.40;99.90;;;;;;8390794;28;20447;-67
2023/04/01 03:14:41;;;;;;;;;;;9.40;99.90;;;;;;8361190;28;21003;-67
2023/04/01 03:18:43;;;;;;;;;;;9.40;99.90;;;;;;8370420;28;19929;-67
2023/04/01 03:22:45;;;;;;;;;;;9.40;99.90;;;;;;8385607;28;19932;-67
2023/04/01 03:26:47;;;;;;;;;;;9.40;99.90;;;;;;8360638;28;19925;-67
2023/04/01 03:30:48;;;;;;;;;;;9.40;99.90;;;;;;8389918;28;19931;-67
2023/04/01 03:34:50;;;;;;;;;;;9.40;99.90;;;;;;8387271;28;19970;-67
2023/04/01 03:43:45;;;;;;;;;;;9.40;99.90;;;;;;8305804;28;19932;-67
2023/04/01 03:47:46;;;;;;;;;;;9.50;99.90;;;;;;8311431;28;19963;-67
2023/04/01 03:51:48;;;;;;;;;;;9.50;99.90;;;;;;8303257;28;19930;-67
2023/04/01 03:55:51;;;;;;;;;;;9.50;99.90;;;;;;8296268;28;20010;-67
2023/04/01 03:59:52;;;;;;;;;;;9.50;99.90;;;;;;8312867;28;19925;-67
2023/04/01 04:03:54;;;;;;;;;;;9.50;99.90;;;;;;8303974;28;20012;-67
2023/04/01 04:07:56;;;;;;;;;;;9.60;99.90;;;;;;8306880;28;19929;-67
2023/04/01 04:11:57;;;;;;;;;;;9.60;99.90;;;;;;8310054;28;20396;-67
2023/04/01 04:15:59;;;;;;;;;;;9.60;99.90;;;;;;8307463;28;19965;-67
2023/04/01 04:20:01;;;;;;;;;;;9.60;99.90;;;;;;8319738;28;19925;-67
2023/04/01 04:24:03;;;;;;;;;;;9.70;99.90;;;;;;8319139;28;19972;-67
2023/04/01 04:28:04;;;;;;;;;;;9.70;99.90;;;;;;8319583;28;20296;-67
2023/04/01 04:32:06;;;;;;;;;;;9.70;99.90;;;;;;8308555;28;19941;-67
2023/04/01 04:36:08;;;;;;;;;;;9.70;99.90;;;;;;8307394;28;20416;-67
2023/04/01 04:40:10;;;;;;;;;;;9.80;99.90;;;;;;8329354;28;19925;-67
2023/04/01 04:44:11;;;;;;;;;;;9.80;99.90;;;;;;8387521;28;19947;-67
2023/04/01 04:48:18;;;;;;;;;;;9.80;99.90;;;;;;8384361;28;19983;-67
2023/04/01 04:52:19;;;;;;;;;;;9.80;99.90;;;;;;8364787;28;19947;-67
2023/04/01 04:56:22;;;;;;;;;;;9.80;99.90;;;;;;8373999;28;19950;-67
2023/04/01 05:00:23;;;;;;;;;;;9.90;99.90;;;;;;8387329;28;19928;-67
2023/04/01 05:04:25;;;;;;;;;;;9.90;99.90;;;;;;8391460;28;19967;-67
2023/04/01 05:08:27;;;;;;;;;;;9.90;99.90;;;;;;8387006;28;19932;-67
2023/04/01 05:12:28;;;;;;;;;;;9.90;99.90;;;;;;8368038;28;19928;-67
2023/04/01 05:16:31;;;;;;;;;;;9.90;99.90;;;;;;8370519;28;20004;-67
2023/04/01 05:20:33;;;;;;;;;;;9.90;99.90;;;;;;8393701;28;20102;-67
2023/04/01 05:24:34;;;;;;;;;;;9.90;99.90;;;;;;8370563;28;20369;-67
2023/04/01 05:28:36;;;;;;;;;;;9.90;99.90;;;;;;8385178;28;19956;-68
2023/04/01 05:43:04;;;;;;;;;;;9.90;99.90;;;;;;8382040;28;20727;-67
2023/04/01 05:47:06;;;;;;;;;;;10.00;99.90;;;;;;8392277;28;19959;-67
2023/04/01 05:51:12;;;;;;;;;;;10.00;99.90;;;;;;8362222;28;20436;-67
2023/04/01 05:55:14;;;;;;;;;;;10.00;99.90;;;;;;8359180;28;20022;-67
2023/04/01 05:59:16;;;;;;;;;;;10.00;99.90;;;;;;8413724;28;19923;-67
2023/04/01 06:03:17;;;;;;;;;;;10.00;99.90;;;;;;8384073;28;19932;-67
2023/04/01 06:07:19;;;;;;;;;;;10.00;99.90;;;;;;8402191;28;19928;-67
2023/04/01 06:11:59;;;;;;;;;;;10.00;99.90;;;;;;8384948;28;19932;-68
2023/04/01 06:16:18;;;;;;;;;;;10.00;99.90;;;;;;8323889;28;20351;-67
2023/04/01 06:20:32;;;;;;;;;;;10.10;99.90;;;;;;8351893;28;19950;-67
2023/04/01 06:24:34;;;;;;;;;;;10.10;99.90;;;;;;8363631;28;19980;-67
2023/04/01 06:28:35;;;;;;;;;;;10.10;99.90;;;;;;8382014;28;19925;-67
2023/04/01 06:32:43;;;;;;;;;;;10.10;99.90;;;;;;8365117;28;20362;-67
2023/04/01 06:37:03;;;;;;;;;;;10.10;99.90;;;;;;8381066;28;20023;-67
2023/04/01 06:41:20;;;;;;;;;;;10.10;99.90;;;;;;8379371;28;20016;-67
2023/04/01 06:45:35;;;;;;;;;;;10.10;99.90;;;;;;8385947;28;20011;-67
2023/04/01 06:49:44;;;;;;;;;;;10.10;99.90;;;;;;8381134;28;19946;-67
2023/04/01 06:53:45;;;;;;;;;;;10.10;99.90;;;;;;8376884;28;19932;-67
2023/04/01 06:57:49;;;;;;;;;;;10.10;99.90;;;;;;8371907;28;20376;-67
2023/04/01 07:01:59;;;;;;;;;;;10.10;99.90;;;;;;8383378;28;19931;-67
2023/04/01 07:06:03;;;;;;;;;;;10.10;99.90;;;;;;8354539;28;20322;-67
2023/04/01 07:10:13;;;;;;;;;;;10.10;99.90;;;;;;8384209;28;19928;-67
2023/04/01 07:14:18;;;;;;;;;;;10.20;99.90;;;;;;8367658;28;19925;-67
2023/04/01 07:18:29;;;;;;;;;;;10.20;99.90;;;;;;8367226;28;19932;-67
2023/04/01 07:22:36;;;;;;;;;;;10.20;99.90;;;;;;8368089;28;19925;-67
2023/04/01 07:26:38;;;;;;;;;;;10.20;99.90;;;;;;8362717;28;19925;-67
2023/04/01 07:30:44;;;;;;;;;;;10.30;99.90;;;;;;8386109;28;19977;-67
2023/04/01 07:34:55;;;;;;;;;;;10.30;99.90;;;;;;8385608;28;19924;-67
2023/04/01 07:38:57;;;;;;;;;;;10.30;99.90;;;;;;8378223;28;19934;-67
2023/04/01 07:43:07;;;;;;;;;;;10.30;99.90;;;;;;8365583;28;19929;-67
2023/04/01 07:47:35;;;;;;;;;;;10.20;99.90;;;;;;8400352;28;19931;-67
2023/04/01 07:51:44;;;;;;;;;;;10.30;99.90;;;;;;8373550;28;19932;-67
2023/04/01 07:55:50;;;;;;;;;;;10.30;99.90;;;;;;8384986;28;19966;-67
2023/04/01 08:00:18;;;;;;;;;;;10.30;99.90;;;;;;8388305;28;19928;-67
2023/04/01 08:04:27;;;;;;;;;;;10.30;99.90;;;;;;8354021;28;19929;-67
2023/04/01 08:18:42;;;;;;;;;;;10.40;99.90;;;;;;8384138;28;19923;-67
2023/04/01 08:22:48;;;;;;;;;;;10.40;99.90;;;;;;8382663;28;19925;-67
2023/04/01 08:26:53;;;;;;;;;;;10.40;99.90;;;;;;8391549;28;20291;-67
2023/04/01 08:31:04;;;;;;;;;;;10.50;99.90;;;;;;8392456;28;20384;-67
2023/04/01 08:35:17;;;;;;;;;;;10.50;99.90;;;;;;8399030;28;19924;-67
2023/04/01 08:39:28;;;;;;;;;;;10.60;99.90;;;;;;8379787;28;19925;-67
2023/04/01 08:43:42;;;;;;;;;;;10.60;99.90;;;;;;8387999;28;20299;-67
2023/04/01 08:58:02;;;;;;;;;;;10.80;99.90;;;;;;8360269;28;20061;-67
2023/04/01 09:02:21;;;;;;;;;;;10.80;99.90;;;;;;8391057;28;19938;-67
2023/04/01 09:17:02;;;;;;;;;;;10.80;99.90;;;;;;8359569;28;20011;-67
2023/04/01 09:21:10;;;;;;;;;;;10.80;99.90;;;;;;8326487;28;20353;-67
2023/04/01 09:25:22;;;;;;;;;;;10.90;99.90;;;;;;8372674;28;20363;-67
2023/04/01 09:34:26;;;;;;;;;;;11.10;99.90;;;;;;8372315;28;19923;-67
2023/04/01 09:38:29;;;;;;;;;;;11.10;99.90;;;;;;8375673;28;19931;-67
2023/04/01 09:42:48;;;;;;;;;;;11.10;99.90;;;;;;8364184;28;20015;-67
2023/04/01 09:46:55;;;;;;;;;;;11.10;99.90;;;;;;8359674;28;19929;-67
2023/04/01 09:51:05;;;;;;;;;;;11.10;99.90;;;;;;8386483;28;20361;-67
2023/04/01 09:55:26;;;;;;;;;;;11.10;99.90;;;;;;8369636;28;19979;-67
2023/04/01 09:59:30;;;;;;;;;;;11.10;99.90;;;;;;8369366;28;20312;-67
2023/04/01 10:03:51;;;;;;;;;;;11.10;99.90;;;;;;8370860;28;19932;-67
2023/04/01 10:07:56;;;;;;;;;;;11.10;99.90;;;;;;8370371;28;20276;-66
2023/04/01 10:12:04;;;;;;;;;;;11.10;99.90;;;;;;8370619;28;19928;-67
2023/04/01 10:16:23;;;;;;;;;;;11.10;99.90;;;;;;8384801;28;19931;-67
2023/04/01 10:20:31;;;;;;;;;;;11.10;99.90;;;;;;8358111;28;19929;-67
2023/04/01 10:24:44;;;;;;;;;;;11.10;99.90;;;;;;8373164;28;20024;-67
2023/04/01 10:28:55;;;;;;;;;;;11.10;99.90;;;;;;8374810;28;19924;-67
2023/04/01 10:32:57;;;;;;;;;;;11.10;99.90;;;;;;8372894;28;19928;-67
2023/04/01 10:47:28;;;;;;;;;;;11.60;99.90;;;;;;8360347;28;20502;-67
2023/04/01 10:51:32;;;;;;;;;;;11.90;99.90;;;;;;8380324;28;19955;-67
2023/04/01 10:55:46;;;;;;;;;;;12.00;99.90;;;;;;8353918;28;19924;-67
2023/04/01 11:00:07;;;;;;;;;;;12.10;99.90;;;;;;8359832;28;19928;-67
2023/04/01 11:04:41;;;;;;;;;;;12.20;99.90;;;;;;8375063;28;19987;-67
2023/04/01 11:09:03;;;;;;;;;;;12.20;99.90;;;;;;8372088;28;19928;-67
2023/04/01 11:13:23;;;;;;;;;;;12.20;99.90;;;;;;8372779;28;20016;-67
2023/04/01 11:17:28;;;;;;;;;;;12.20;99.90;;;;;;8375146;28;19932;-67
2023/04/01 11:21:42;;;;;;;;;;;12.20;99.90;;;;;;8380440;28;20384;-67
2023/04/01 11:25:51;;;;;;;;;;;12.30;99.90;;;;;;8378405;28;19924;-67
2023/04/01 11:29:53;;;;;;;;;;;12.60;99.90;;;;;;8377210;28;19960;-67
2023/04/01 11:34:20;;;;;;;;;;;13.00;99.90;;;;;;8382144;28;19933;-67
2023/04/01 11:38:26;;;;;;;;;;;13.20;99.90;;;;;;8370367;28;19940;-68
2023/04/01 11:42:34;;;;;;;;;;;13.20;99.90;;;;;;8359340;28;20380;-68
2023/04/01 11:46:54;;;;;;;;;;;12.90;99.90;;;;;;8349169;28;19924;-67
2023/04/01 11:50:59;;;;;;;;;;;12.80;99.90;;;;;;8354503;28;19924;-68
2023/04/01 11:55:16;;;;;;;;;;;12.60;99.90;;;;;;8357681;28;20006;-67
2023/04/01 11:59:27;;;;;;;;;;;12.70;99.90;;;;;;8356412;28;20368;-67
2023/04/01 12:03:54;;;;;;;;;;;12.80;99.90;;;;;;8359579;28;20002;-68
2023/04/01 12:08:21;;;;;;;;;;;13.10;99.90;;;;;;8373332;28;19928;-68
2023/04/01 12:12:42;;;;;;;;;;;13.30;99.90;;;;;;8370197;28;20688;-68
2023/04/01 12:22:17;;;;;;;;;;;13.50;99.90;;;;;;8355371;28;20372;-67
2023/04/01 12:26:19;;;;;;;;;;;13.40;99.90;;;;;;8369663;28;20307;-67
2023/04/01 12:30:34;;;;;;;;;;;13.20;99.90;;;;;;8357282;28;19929;-67
2023/04/01 12:34:43;;;;;;;;;;;13.00;99.90;;;;;;8356022;28;20289;-67
2023/04/01 12:38:45;;;;;;;;;;;12.90;99.90;;;;;;8359720;28;19935;-68
2023/04/01 12:43:05;;;;;;;;;;;12.80;99.90;;;;;;8360250;28;19940;-67
2023/04/01 12:47:26;;;;;;;;;;;12.80;99.90;;;;;;8355533;28;19939;-68
2023/04/01 12:51:30;;;;;;;;;;;12.70;99.90;;;;;;8325924;28;19926;-68
2023/04/01 12:55:38;;;;;;;;;;;12.70;99.90;;;;;;8338617;28;19925;-68
2023/04/01 12:59:59;;;;;;;;;;;12.50;99.90;;;;;;8323667;28;19936;-68
2023/04/01 13:04:19;;;;;;;;;;;12.50;99.90;;;;;;8324540;28;20016;-68
2023/04/01 13:08:27;;;;;;;;;;;12.40;99.90;;;;;;8325883;28;19976;-68
2023/04/01 13:12:28;;;;;;;;;;;12.40;99.90;;;;;;8323736;28;20325;-68
2023/04/01 13:16:33;;;;;;;;;;;12.30;99.90;;;;;;8322132;28;19986;-68
2023/04/01 13:20:35;;;;;;;;;;;12.30;99.90;;;;;;8352870;28;19936;-68
2023/04/01 13:24:42;;;;;;;;;;;12.40;99.90;;;;;;8317080;28;20012;-67
2023/04/01 13:28:51;;;;;;;;;;;12.40;99.90;;;;;;8324401;28;20055;-68
2023/04/01 13:33:03;;;;;;;;;;;12.50;99.90;;;;;;8336813;28;20300;-67
2023/04/01 13:37:15;;;;;;;;;;;12.60;99.90;;;;;;8321325;28;19933;-68
2023/04/01 13:41:26;;;;;;;;;;;12.60;99.90;;;;;;8317915;28;19936;-68
2023/04/01 13:45:27;;;;;;;;;;;12.60;99.90;;;;;;8329373;28;20855;-67
2023/04/01 13:49:29;;;;;;;;;;;12.70;99.90;;;;;;8370874;28;19925;-68
2023/04/01 13:53:37;;;;;;;;;;;12.70;99.90;;;;;;8359343;28;20440;-67
2023/04/01 13:57:39;;;;;;;;;;;12.60;99.90;;;;;;8351645;28;19932;-67
2023/04/01 14:01:44;;;;;;;;;;;12.50;99.90;;;;;;8351670;28;19944;-67
2023/04/01 14:05:46;;;;;;;;;;;12.40;99.90;;;;;;8358853;28;19967;-68
2023/04/01 14:10:02;;;;;;;;;;;12.30;99.90;;;;;;8355455;28;19925;-68
2023/04/01 14:14:13;;;;;;;;;;;12.20;99.90;;;;;;8352386;28;19955;-68
2023/04/01 14:18:30;;;;;;;;;;;12.10;99.90;;;;;;8353846;28;20014;-68
2023/04/01 14:22:40;;;;;;;;;;;12.00;99.90;;;;;;8353816;28;20384;-68
2023/04/01 14:26:54;;;;;;;;;;;12.00;99.90;;;;;;8353904;28;20044;-68
2023/04/01 14:30:56;;;;;;;;;;;12.00;99.90;;;;;;8349102;28;20040;-68
2023/04/01 14:35:16;;;;;;;;;;;12.00;99.90;;;;;;8352141;28;19964;-69
2023/04/01 14:39:29;;;;;;;;;;;11.90;99.90;;;;;;8353667;28;19968;-68
2023/04/01 14:43:30;;;;;;;;;;;11.90;99.90;;;;;;8348735;28;20330;-68
2023/04/01 14:47:44;;;;;;;;;;;12.10;99.90;;;;;;8352813;28;20023;-68
2023/04/01 14:51:46;;;;;;;;;;;12.30;99.90;;;;;;8356986;28;19936;-68
2023/04/01 14:55:53;;;;;;;;;;;12.30;99.90;;;;;;8351563;28;20288;-69
2023/04/01 15:00:00;;;;;;;;;;;12.40;99.90;;;;;;8352844;28;19932;-68
2023/04/01 15:04:13;;;;;;;;;;;12.30;99.90;;;;;;8354136;28;19925;-68
2023/04/01 15:08:20;;;;;;;;;;;12.30;99.90;;;;;;8334787;28;19925;-68
2023/04/01 15:12:45;;;;;;;;;;;12.20;99.90;;;;;;8351308;28;20372;-68
2023/04/01 15:17:10;;;;;;;;;;;12.20;99.90;;;;;;8351086;28;20008;-68
2023/04/01 15:21:33;;;;;;;;;;;12.10;99.90;;;;;;8339837;28;20288;-68
2023/04/01 15:25:47;;;;;;;;;;;12.10;99.90;;;;;;8350840;28;19975;-67
2023/04/01 15:29:57;;;;;;;;;;;12.10;99.90;;;;;;8351953;28;19940;-68
2023/04/01 15:34:02;;;;;;;;;;;12.10;99.90;;;;;;8364534;28;19933;-67
2023/04/01 15:38:07;;;;;;;;;;;12.10;99.90;;;;;;8361590;28;19929;-68
2023/04/01 15:42:08;;;;;;;;;;;12.00;99.90;;;;;;8357847;28;20063;-68
2023/04/01 15:46:22;;;;;;;;;;;12.00;99.90;;;;;;8351399;28;20337;-68
2023/04/01 15:50:27;;;;;;;;;;;11.90;99.90;;;;;;8352498;28;20023;-67
2023/04/01 15:54:32;;;;;;;;;;;11.90;99.90;;;;;;8355692;28;20006;-68
2023/04/01 15:58:42;;;;;;;;;;;11.80;99.90;;;;;;8356396;28;20273;-67
2023/04/01 16:03:03;;;;;;;;;;;11.80;99.90;;;;;;8351987;28;19952;-68
2023/04/01 16:07:11;;;;;;;;;;;11.80;99.90;;;;;;8353062;28;20338;-68
2023/04/01 16:11:23;;;;;;;;;;;11.80;99.90;;;;;;8375120;28;19932;-67
2023/04/01 16:15:57;;;;;;;;;;;11.80;99.90;;;;;;8358577;28;19999;-68
2023/04/01 16:20:19;;;;;;;;;;;11.90;99.90;;;;;;8341206;28;19960;-68
2023/04/01 16:24:45;;;;;;;;;;;11.80;99.90;;;;;;8360643;28;19925;-68
2023/04/01 16:28:56;;;;;;;;;;;11.70;99.90;;;;;;8336232;28;19992;-68
2023/04/01 16:33:03;;;;;;;;;;;11.70;99.90;;;;;;8357061;28;19947;-67
2023/04/01 16:37:12;;;;;;;;;;;11.60;99.90;;;;;;8359662;28;20023;-68
2023/04/01 16:41:35;;;;;;;;;;;11.60;99.90;;;;;;8356079;28;20012;-67
2023/04/01 16:45:48;;;;;;;;;;;11.50;99.90;;;;;;8341633;28;19975;-67
2023/04/01 16:50:04;;;;;;;;;;;11.50;99.90;;;;;;8354024;28;19925;-67
2023/04/01 16:54:14;;;;;;;;;;;11.40;99.90;;;;;;8356520;28;19931;-68
2023/04/01 16:58:24;;;;;;;;;;;11.40;99.90;;;;;;8360463;28;19963;-67
2023/04/01 17:02:28;;;;;;;;;;;11.40;99.90;;;;;;8354878;28;19928;-67
2023/04/01 17:06:48;;;;;;;;;;;11.30;99.90;;;;;;8353921;28;20300;-68
2023/04/01 17:10:59;;;;;;;;;;;11.20;99.90;;;;;;8378388;28;20407;-67
2023/04/01 17:15:15;;;;;;;;;;;11.20;99.90;;;;;;8357913;28;20410;-68
2023/04/01 17:19:17;;;;;;;;;;;11.20;99.90;;;;;;8370331;28;19929;-67
2023/04/01 17:23:43;;;;;;;;;;;11.10;99.90;;;;;;8371688;28;19924;-68
2023/04/01 17:27:55;;;;;;;;;;;11.00;99.90;;;;;;8354582;28;20015;-68
2023/04/01 17:31:57;;;;;;;;;;;10.90;99.90;;;;;;8359323;28;19936;-67
2023/04/01 17:35:59;;;;;;;;;;;10.90;99.90;;;;;;8354113;28;19924;-67
2023/04/01 17:40:00;;;;;;;;;;;10.80;99.90;;;;;;8352522;28;19961;-68
2023/04/01 17:44:02;;;;;;;;;;;10.70;99.90;;;;;;8359997;28;19928;-68
2023/04/01 17:48:09;;;;;;;;;;;10.70;99.90;;;;;;8352388;28;19928;-68
2023/04/01 17:52:30;;;;;;;;;;;10.60;99.90;;;;;;8355813;28;19940;-67
2023/04/01 17:56:32;;;;;;;;;;;10.60;99.90;;;;;;8355006;28;20031;-67
2023/04/01 18:00:52;;;;;;;;;;;10.60;99.90;;;;;;8353889;28;19932;-68
2023/04/01 18:05:13;;;;;;;;;;;10.60;99.90;;;;;;8354644;28;19931;-68
2023/04/01 18:09:38;;;;;;;;;;;10.50;99.90;;;;;;8353706;28;20031;-67
2023/04/01 18:13:46;;;;;;;;;;;10.50;99.90;;;;;;8352523;28;19963;-68
2023/04/01 18:17:47;;;;;;;;;;;10.50;99.90;;;;;;8354683;28;19932;-68
2023/04/01 18:21:55;;;;;;;;;;;10.40;99.90;;;;;;8357774;28;19932;-68
2023/04/01 18:26:10;;;;;;;;;;;10.40;99.90;;;;;;8366612;28;20303;-67
2023/04/01 18:30:11;;;;;;;;;;;10.40;99.90;;;;;;8354696;28;20404;-67
2023/04/01 18:34:28;;;;;;;;;;;10.30;99.90;;;;;;8365902;28;19933;-68
2023/04/01 18:38:32;;;;;;;;;;;10.40;99.90;;;;;;8366498;28;20055;-68
2023/04/01 18:42:43;;;;;;;;;;;10.30;99.90;;;;;;8352254;28;20035;-68
2023/04/01 18:47:02;;;;;;;;;;;10.30;99.90;;;;;;8352047;28;19935;-68
2023/04/01 18:51:16;;;;;;;;;;;10.30;99.90;;;;;;8355229;28;19924;-68
2023/04/01 18:55:22;;;;;;;;;;;10.30;99.90;;;;;;8354452;28;20304;-68
2023/04/01 18:59:39;;;;;;;;;;;10.20;99.90;;;;;;8336270;28;19948;-68
2023/04/01 19:04:01;;;;;;;;;;;10.10;99.90;;;;;;8352814;28;21742;-68
2023/04/01 19:08:21;;;;;;;;;;;10.10;99.90;;;;;;8353495;28;20022;-68
2023/04/01 19:12:42;;;;;;;;;;;10.10;99.90;;;;;;8354533;28;20424;-67
2023/04/01 19:16:44;;;;;;;;;;;10.00;99.90;;;;;;8363907;28;19932;-68
2023/04/01 19:30:52;;;;;;;;;;;10.00;99.90;;;;;;8351425;28;20461;-68
2023/04/01 19:35:14;;;;;;;;;;;10.00;99.90;;;;;;8348153;28;19935;-67
2023/04/01 19:39:28;;;;;;;;;;;10.00;99.90;;;;;;8352306;28;19932;-68
2023/04/01 19:43:35;;;;;;;;;;;9.90;99.90;;;;;;8356146;28;19933;-68
2023/04/01 19:47:56;;;;;;;;;;;9.90;99.90;;;;;;8376655;28;19924;-68
2023/04/01 19:52:08;;;;;;;;;;;9.90;99.90;;;;;;8375371;28;19950;-68
2023/04/01 19:56:17;;;;;;;;;;;9.80;99.90;;;;;;8361082;28;19999;-68
2023/04/01 20:00:29;;;;;;;;;;;9.80;99.90;;;;;;8359007;28;19924;-67
2023/04/01 20:04:36;;;;;;;;;;;9.80;99.90;;;;;;8362993;28;19940;-68
2023/04/01 20:08:44;;;;;;;;;;;9.80;99.90;;;;;;8364084;28;20049;-67
2023/04/01 20:12:48;;;;;;;;;;;9.70;99.90;;;;;;8373624;28;19978;-68
2023/04/01 20:17:06;;;;;;;;;;;9.70;99.90;;;;;;8359572;28;19933;-68
2023/04/01 20:21:14;;;;;;;;;;;9.70;99.90;;;;;;8357756;28;19940;-67
2023/04/01 20:25:35;;;;;;;;;;;9.70;99.90;;;;;;8374031;28;20372;-68
2023/04/01 20:29:56;;;;;;;;;;;9.60;99.90;;;;;;8356518;28;19932;-67
2023/04/01 20:34:16;;;;;;;;;;;9.60;99.90;;;;;;8357490;28;20277;-67
2023/04/01 20:38:27;;;;;;;;;;;9.60;99.90;;;;;;8375367;28;19925;-68
2023/04/01 20:42:29;;;;;;;;;;;9.50;99.90;;;;;;8352171;28;19929;-68
2023/04/01 20:46:44;;;;;;;;;;;9.40;99.90;;;;;;8355941;28;20023;-68
2023/04/01 20:50:51;;;;;;;;;;;9.40;99.90;;;;;;8352445;28;19982;-67
2023/04/01 20:55:11;;;;;;;;;;;9.40;99.90;;;;;;8355529;28;19972;-67
2023/04/01 20:59:16;;;;;;;;;;;9.30;99.90;;;;;;8364506;28;19933;-67
2023/04/01 21:03:21;;;;;;;;;;;9.30;99.90;;;;;;8386377;28;19957;-68
2023/04/01 21:17:35;;;;;;;;;;;9.10;99.90;;;;;;8390069;28;20410;-67
2023/04/01 21:21:49;;;;;;;;;;;9.10;99.90;;;;;;8379473;28;19978;-67
2023/04/01 21:26:09;;;;;;;;;;;9.00;99.90;;;;;;8392283;28;19924;-68
2023/04/01 21:30:20;;;;;;;;;;;9.00;99.90;;;;;;8383850;28;19933;-67
2023/04/01 21:34:37;;;;;;;;;;;9.10;99.90;;;;;;8390830;28;19931;-68
2023/04/01 21:38:57;;;;;;;;;;;9.00;99.90;;;;;;8396121;28;19965;-68
2023/04/01 21:42:59;;;;;;;;;;;9.00;99.90;;;;;;8386065;28;20352;-68
2023/04/01 21:47:02;;;;;;;;;;;9.00;99.90;;;;;;8363020;28;19932;-68
2023/04/01 21:51:27;;;;;;;;;;;8.90;99.90;;;;;;8389653;28;19963;-68
2023/04/01 21:55:47;;;;;;;;;;;8.90;99.90;;;;;;8363755;28;19925;-67
2023/04/01 22:00:11;;;;;;;;;;;8.80;99.90;;;;;;8392022;28;20388;-67
2023/04/01 22:04:12;;;;;;;;;;;8.70;99.90;;;;;;8378049;28;19925;-68
2023/04/01 22:08:26;;;;;;;;;;;8.70;99.90;;;;;;8388980;28;19929;-68
2023/04/01 22:12:37;;;;;;;;;;;8.60;99.90;;;;;;8369788;28;19924;-68
2023/04/01 22:16:41;;;;;;;;;;;8.60;99.90;;;;;;8365152;28;19932;-68
2023/04/01 22:20:53;;;;;;;;;;;8.60;99.90;;;;;;8378453;28;19929;-68
2023/04/01 22:25:13;;;;;;;;;;;8.60;99.90;;;;;;8384580;28;19932;-68
2023/04/01 22:29:14;;;;;;;;;;;8.50;99.90;;;;;;8376854;28;19932;-67
2023/04/01 22:33:16;;;;;;;;;;;8.40;99.90;;;;;;8374916;28;19931;-68
2023/04/01 22:37:26;;;;;;;;;;;8.40;99.90;;;;;;8376587;28;19925;-68
2023/04/01 22:41:28;;;;;;;;;;;8.40;99.90;;;;;;8393903;28;19932;-67
2023/04/01 22:45:48;;;;;;;;;;;8.40;99.90;;;;;;8380236;28;19931;-68
2023/04/01 22:50:03;;;;;;;;;;;8.40;99.90;;;;;;8375762;28;19931;-67
2023/04/01 22:54:24;;;;;;;;;;;8.30;99.90;;;;;;8363817;28;19929;-68
2023/04/01 22:58:30;;;;;;;;;;;8.30;99.90;;;;;;8378916;28;19959;-67
2023/04/01 23:02:35;;;;;;;;;;;8.30;99.90;;;;;;8387725;28;19940;-68
2023/04/01 23:06:42;;;;;;;;;;;8.20;99.90;;;;;;8370815;28;20332;-67
2023/04/01 23:10:54;;;;;;;;;;;8.20;99.90;;;;;;8386453;28;19924;-67
2023/04/01 23:15:00;;;;;;;;;;;8.20;99.90;;;;;;8388970;28;19924;-68
2023/04/01 23:19:17;;;;;;;;;;;8.20;99.90;;;;;;8383864;28;20277;-67
2023/04/01 23:23:25;;;;;;;;;;;8.20;99.90;;;;;;8384182;28;19968;-67
2023/04/01 23:27:36;;;;;;;;;;;8.10;99.90;;;;;;8381591;28;19959;-67
2023/04/01 23:31:41;;;;;;;;;;;8.10;99.90;;;;;;8383632;28;19956;-67
2023/04/01 23:35:51;;;;;;;;;;;8.10;99.90;;;;;;8388747;28;19979;-67
2023/04/01 23:39:56;;;;;;;;;;;8.10;99.90;;;;;;8384085;28;19932;-68
2023/04/01 23:44:00;;;;;;;;;;;8.00;99.90;;;;;;8391002;28;19924;-67
2023/04/01 23:48:02;;;;;;;;;;;8.00;99.90;;;;;;8369081;28;19924;-67
2023/04/01 23:52:10;;;;;;;;;;;8.00;99.90;;;;;;8392336;28;19977;-67
2023/04/01 23:56:11;;;;;;;;;;;8.00;99.90;;;;;;8359792;28;19956;-67
